Time;durP1;ratioP1;P1;durP2;ratioP2;P2;SDS_P1;SDS_P2;PMS_P1;PMS_P2;Temp;Humidity;BMP_temperature;BMP_pressure;BME280_temperature;BME280_humidity;BME280_pressure;Samples;Min_cycle;Max_cycle;Signal;HPM_P1;HPM_P2
2023/06/30 00:02:14;;;;;;;8.43;5.28;;;22.10;53.80;;;;;;5052726;28;20036;-74
2023/06/30 00:04:39;;;;;;;8.73;5.97;;;22.10;53.80;;;;;;5051130;28;20039;-74
2023/06/30 00:07:05;;;;;;;8.93;5.63;;;22.10;53.90;;;;;;5051799;28;20049;-75
2023/06/30 00:09:31;;;;;;;7.47;5.43;;;22.10;53.90;;;;;;5052786;28;20204;-75
2023/06/30 00:11:56;;;;;;;9.02;6.20;;;22.10;53.90;;;;;;5052692;28;20025;-76
2023/06/30 00:14:22;;;;;;;7.45;5.25;;;22.10;54.00;;;;;;5052749;28;20024;-74
2023/06/30 00:16:49;;;;;;;8.10;5.60;;;22.10;54.10;;;;;;5052656;28;20024;-74
2023/06/30 00:19:18;;;;;;;11.90;6.88;;;22.10;54.00;;;;;;5052743;28;20111;-74
2023/06/30 00:21:45;;;;;;;10.35;7.20;;;22.10;54.30;;;;;;5052593;28;20071;-73
2023/06/30 00:24:12;;;;;;;11.38;7.60;;;22.10;54.30;;;;;;5052464;28;20500;-74
2023/06/30 00:26:39;;;;;;;14.80;8.15;;;22.00;54.40;;;;;;5052701;28;20028;-73
2023/06/30 00:29:05;;;;;;;10.32;7.07;;;22.00;55.00;;;;;;5051258;28;20462;-73
2023/06/30 00:31:30;;;;;;;8.68;7.10;;;21.90;55.50;;;;;;5052647;28;20021;-74
2023/06/30 00:33:57;;;;;;;13.38;7.40;;;21.90;55.50;;;;;;5052526;28;20111;-74
2023/06/30 00:36:22;;;;;;;11.18;7.75;;;21.80;55.90;;;;;;5052552;28;20078;-73
2023/06/30 00:38:49;;;;;;;12.27;8.48;;;21.60;56.40;;;;;;5052528;28;20025;-74
2023/06/30 00:41:15;;;;;;;11.65;8.20;;;21.60;56.70;;;;;;5052676;28;20033;-73
2023/06/30 00:43:41;;;;;;;16.52;8.80;;;21.60;56.80;;;;;;5052387;28;20394;-73
2023/06/30 00:46:12;;;;;;;10.40;7.95;;;21.60;57.00;;;;;;5051030;28;20025;-73
2023/06/30 00:48:37;;;;;;;17.05;10.30;;;21.70;56.80;;;;;;5052408;28;20385;-75
2023/06/30 00:51:04;;;;;;;14.73;9.85;;;21.60;57.40;;;;;;5052301;28;20028;-74
2023/06/30 00:53:30;;;;;;;12.95;9.10;;;21.60;57.50;;;;;;5052319;28;20044;-73
2023/06/30 00:55:56;;;;;;;15.43;9.57;;;21.60;57.60;;;;;;5052376;28;20063;-73
2023/06/30 00:58:21;;;;;;;14.38;8.90;;;21.60;57.60;;;;;;5052448;28;20029;-73
2023/06/30 01:00:47;;;;;;;11.77;8.85;;;21.60;57.50;;;;;;5052292;28;20029;-73
2023/06/30 01:03:39;;;;;;;16.08;8.80;;;21.60;57.10;;;;;;5050953;28;20041;-74
2023/06/30 01:06:13;;;;;;;11.55;9.13;;;21.60;57.50;;;;;;5050966;28;20053;-74
2023/06/30 01:08:48;;;;;;;11.65;8.95;;;21.70;57.80;;;;;;5052371;28;20433;-73
2023/06/30 01:11:14;;;;;;;16.60;10.13;;;21.70;57.70;;;;;;5054981;28;20408;-74
2023/06/30 01:13:41;;;;;;;16.52;10.70;;;21.60;58.30;;;;;;5052213;28;20025;-73
2023/06/30 01:16:09;;;;;;;13.10;10.48;;;21.50;58.90;;;;;;5052143;28;20109;-73
2023/06/30 01:18:36;;;;;;;13.75;10.23;;;21.50;59.10;;;;;;5054520;28;20032;-74
2023/06/30 01:21:04;;;;;;;15.27;10.45;;;21.40;59.20;;;;;;5054327;28;20021;-74
2023/06/30 01:23:40;;;;;;;15.30;10.57;;;21.40;59.30;;;;;;5055528;28;20079;-76
2023/06/30 01:26:06;;;;;;;16.08;10.57;;;21.40;59.60;;;;;;5055566;28;20111;-79
2023/06/30 01:28:35;;;;;;;14.27;10.50;;;21.30;59.70;;;;;;5055622;28;20087;-79
2023/06/30 01:31:01;;;;;;;15.23;9.32;;;21.30;59.70;;;;;;5055377;28;20403;-79
2023/06/30 01:33:28;;;;;;;15.25;10.88;;;21.40;59.70;;;;;;5055593;28;20025;-77
2023/06/30 01:35:53;;;;;;;14.48;9.43;;;21.40;59.90;;;;;;5055573;28;20017;-78
2023/06/30 01:38:19;;;;;;;15.13;10.52;;;21.40;59.70;;;;;;5054305;28;20017;-79
2023/06/30 01:40:46;;;;;;;12.95;10.18;;;21.40;59.90;;;;;;5055465;28;20056;-78
2023/06/30 01:43:12;;;;;;;15.88;11.13;;;21.30;60.20;;;;;;5055370;28;20083;-79
2023/06/30 01:45:39;;;;;;;13.65;10.65;;;21.30;60.00;;;;;;5055487;28;20086;-78
2023/06/30 01:48:05;;;;;;;13.57;10.20;;;21.30;60.20;;;;;;5055391;28;20465;-75
2023/06/30 01:50:32;;;;;;;16.38;11.13;;;21.30;60.40;;;;;;5054052;28;20108;-76
2023/06/30 01:52:59;;;;;;;15.55;10.93;;;21.30;60.50;;;;;;5055265;28;20017;-78
2023/06/30 01:55:25;;;;;;;17.30;10.85;;;21.30;60.40;;;;;;5055031;28;20048;-78
2023/06/30 01:57:51;;;;;;;15.40;10.88;;;21.30;60.70;;;;;;5055323;28;20381;-74
2023/06/30 02:00:17;;;;;;;14.25;9.88;;;21.30;60.50;;;;;;5054894;28;20017;-74
2023/06/30 02:02:43;;;;;;;15.38;11.50;;;21.30;60.60;;;;;;5054952;28;20363;-75
2023/06/30 02:05:09;;;;;;;14.38;10.68;;;21.30;60.80;;;;;;5054803;28;20032;-73
2023/06/30 02:07:35;;;;;;;14.75;10.27;;;21.30;60.60;;;;;;5054660;28;20045;-73
2023/06/30 02:10:01;;;;;;;15.85;11.02;;;21.30;60.70;;;;;;5054665;28;20040;-73
2023/06/30 02:12:27;;;;;;;13.55;10.55;;;21.30;61.10;;;;;;5054823;28;20025;-73
2023/06/30 02:14:53;;;;;;;15.25;10.75;;;21.20;61.90;;;;;;5054747;28;20493;-74
2023/06/30 02:17:40;;;;;;;16.88;12.15;;;21.30;61.40;;;;;;5054780;28;20111;-75
2023/06/30 02:20:06;;;;;;;16.08;12.75;;;21.20;62.00;;;;;;5054766;28;20100;-75
2023/06/30 02:22:33;;;;;;;16.80;12.02;;;21.20;62.30;;;;;;5054689;28;20632;-81
2023/06/30 02:24:58;;;;;;;14.95;12.00;;;21.10;62.80;;;;;;5054703;28;20096;-80
2023/06/30 02:27:24;;;;;;;16.33;12.13;;;21.00;63.10;;;;;;5054697;28;20100;-80
2023/06/30 02:29:50;;;;;;;15.95;11.52;;;20.90;63.30;;;;;;5053809;28;20029;-77
2023/06/30 02:32:16;;;;;;;18.67;11.95;;;20.90;63.30;;;;;;5054679;28;20037;-79
2023/06/30 02:34:41;;;;;;;16.60;12.75;;;20.90;63.20;;;;;;5054514;28;20017;-81
2023/06/30 02:37:07;;;;;;;18.55;11.57;;;21.00;63.20;;;;;;5053210;28;20436;-80
2023/06/30 02:39:32;;;;;;;15.50;11.68;;;20.90;63.20;;;;;;5053174;28;20501;-78
2023/06/30 02:41:58;;;;;;;16.20;11.57;;;20.90;63.20;;;;;;5054248;28;20025;-81
2023/06/30 02:44:24;;;;;;;18.90;12.73;;;21.00;63.10;;;;;;5054389;28;20041;-81
2023/06/30 02:46:50;;;;;;;13.88;11.13;;;21.00;63.00;;;;;;5054187;28;20096;-81
2023/06/30 02:49:15;;;;;;;16.45;12.13;;;20.80;63.60;;;;;;5054330;28;20029;-81
2023/06/30 02:51:41;;;;;;;14.48;11.13;;;20.80;63.60;;;;;;5054061;28;20032;-81
2023/06/30 02:54:06;;;;;;;16.83;11.95;;;20.70;64.00;;;;;;5052785;28;20028;-81
2023/06/30 02:56:32;;;;;;;15.65;11.27;;;20.70;63.90;;;;;;5054202;28;20021;-74
2023/06/30 02:58:57;;;;;;;14.90;11.63;;;20.70;64.10;;;;;;5053958;28;20017;-81
2023/06/30 03:01:24;;;;;;;19.85;12.15;;;20.70;64.40;;;;;;5053989;28;20096;-81
2023/06/30 03:03:50;;;;;;;15.40;11.63;;;20.60;64.30;;;;;;5053812;28;20033;-81
2023/06/30 03:06:15;;;;;;;18.30;14.18;;;20.70;64.20;;;;;;5053781;28;20124;-76
2023/06/30 03:08:42;;;;;;;17.80;14.10;;;20.60;65.30;;;;;;5053856;28;20027;-77
2023/06/30 03:11:08;;;;;;;17.85;13.40;;;20.40;66.10;;;;;;5052389;28;20421;-78
2023/06/30 03:13:33;;;;;;;21.05;14.70;;;20.30;67.00;;;;;;5053652;28;20021;-77
2023/06/30 03:15:59;;;;;;;18.55;14.32;;;20.40;68.20;;;;;;5053603;28;20052;-78
2023/06/30 03:18:25;;;;;;;21.73;15.90;;;20.30;69.20;;;;;;5053615;28;20381;-77
2023/06/30 03:20:50;;;;;;;30.23;16.70;;;20.30;71.50;;;;;;5053436;28;20021;-78
2023/06/30 03:23:19;;;;;;;19.73;13.55;;;19.90;76.30;;;;;;5053356;28;20048;-79
2023/06/30 03:25:45;;;;;;;20.60;13.88;;;19.80;76.20;;;;;;5053574;28;20096;-77
2023/06/30 03:28:10;;;;;;;27.23;17.00;;;19.70;77.60;;;;;;5053488;28;20151;-77
2023/06/30 03:30:36;;;;;;;20.65;15.52;;;19.70;79.50;;;;;;5053412;28;20040;-79
2023/06/30 03:33:02;;;;;;;24.30;16.48;;;19.70;80.60;;;;;;5053208;28;20040;-77
2023/06/30 03:35:27;;;;;;;22.85;15.48;;;19.70;80.40;;;;;;5053336;28;20095;-76
2023/06/30 03:37:53;;;;;;;20.83;14.40;;;19.70;81.40;;;;;;5053109;28;20025;-78
2023/06/30 03:40:19;;;;;;;23.55;15.65;;;19.70;81.50;;;;;;5051585;28;20099;-75
2023/06/30 03:42:44;;;;;;;23.92;16.35;;;19.70;81.10;;;;;;5052986;28;20044;-75
2023/06/30 03:45:10;;;;;;;23.88;16.27;;;19.70;81.90;;;;;;5052859;28;20017;-78
2023/06/30 03:47:35;;;;;;;23.30;15.25;;;19.60;81.80;;;;;;5052839;28;20040;-73
2023/06/30 03:50:01;;;;;;;19.10;14.98;;;19.60;82.00;;;;;;5052889;28;20061;-74
2023/06/30 03:52:27;;;;;;;21.40;14.20;;;19.60;82.00;;;;;;5052736;28;20405;-74
2023/06/30 03:54:53;;;;;;;19.52;14.55;;;19.60;81.60;;;;;;5051728;28;20029;-77
2023/06/30 03:57:19;;;;;;;20.27;14.90;;;19.50;81.20;;;;;;5052841;28;20021;-77
2023/06/30 03:59:46;;;;;;;19.83;15.70;;;19.60;81.40;;;;;;5052926;28;20443;-76
2023/06/30 04:02:11;;;;;;;20.67;15.68;;;19.50;81.90;;;;;;5052627;28;20025;-77
2023/06/30 04:04:37;;;;;;;18.35;14.95;;;19.40;82.00;;;;;;5051570;28;20099;-76
2023/06/30 04:07:03;;;;;;;18.92;14.00;;;19.40;81.80;;;;;;5052691;28;20049;-75
2023/06/30 04:09:29;;;;;;;20.42;14.70;;;19.40;81.90;;;;;;5052641;28;20021;-75
2023/06/30 04:11:54;;;;;;;21.42;15.75;;;19.40;82.30;;;;;;5052763;28;20036;-75
2023/06/30 04:14:20;;;;;;;22.30;14.75;;;19.30;83.20;;;;;;5052841;28;20025;-76
2023/06/30 04:16:45;;;;;;;25.55;18.45;;;19.30;83.20;;;;;;5052967;28;20505;-77
2023/06/30 04:19:11;;;;;;;21.20;15.68;;;19.40;83.00;;;;;;5052666;28;20489;-77
2023/06/30 04:21:36;;;;;;;22.48;16.10;;;19.40;82.80;;;;;;5052776;28;20048;-77
2023/06/30 04:24:02;;;;;;;23.98;16.63;;;19.30;83.40;;;;;;5052746;28;20611;-77
2023/06/30 04:26:28;;;;;;;19.85;14.68;;;19.30;82.90;;;;;;5052781;28;20404;-76
2023/06/30 04:28:54;;;;;;;21.63;14.75;;;19.30;82.80;;;;;;5052527;28;20430;-75
2023/06/30 04:31:19;;;;;;;19.00;13.65;;;19.30;83.00;;;;;;5060027;28;20031;-76
2023/06/30 04:33:45;;;;;;;19.05;13.55;;;19.30;83.10;;;;;;5054304;28;20092;-75
2023/06/30 04:36:10;;;;;;;17.90;13.05;;;19.30;83.00;;;;;;5053502;28;20086;-76
2023/06/30 04:38:36;;;;;;;20.75;12.98;;;19.30;82.90;;;;;;5052758;28;20434;-76
2023/06/30 04:41:01;;;;;;;16.40;12.52;;;19.20;81.50;;;;;;5053773;28;20033;-76
2023/06/30 04:43:27;;;;;;;17.98;13.27;;;19.20;81.50;;;;;;5055160;28;20029;-76
2023/06/30 04:45:53;;;;;;;17.00;13.15;;;19.20;81.50;;;;;;5053525;28;20020;-78
2023/06/30 04:48:18;;;;;;;18.42;14.20;;;19.20;81.70;;;;;;5057978;28;20029;-77
2023/06/30 04:50:44;;;;;;;17.13;12.73;;;19.20;81.40;;;;;;5053367;28;20021;-77
2023/06/30 04:53:10;;;;;;;17.40;13.20;;;19.20;81.20;;;;;;5054457;28;20028;-75
2023/06/30 04:55:35;;;;;;;18.25;13.90;;;19.20;81.40;;;;;;5056113;28;20100;-76
2023/06/30 04:58:01;;;;;;;18.92;14.10;;;19.30;82.10;;;;;;5056350;28;20076;-76
2023/06/30 05:00:27;;;;;;;18.27;13.35;;;19.30;82.30;;;;;;5056206;28;20071;-74
2023/06/30 05:02:53;;;;;;;15.38;12.73;;;19.20;82.30;;;;;;5056030;28;20033;-76
2023/06/30 05:05:19;;;;;;;16.25;12.88;;;19.20;82.20;;;;;;5056222;28;20031;-79
2023/06/30 05:07:45;;;;;;;18.40;13.40;;;19.20;82.20;;;;;;5055902;28;20119;-75
2023/06/30 05:10:11;;;;;;;18.17;13.20;;;19.20;82.00;;;;;;5056234;28;20017;-77
2023/06/30 05:12:37;;;;;;;23.30;15.10;;;19.20;82.10;;;;;;5056120;28;20079;-78
2023/06/30 05:15:03;;;;;;;19.55;14.30;;;19.20;82.40;;;;;;5056023;28;20021;-75
2023/06/30 05:17:29;;;;;;;19.55;13.05;;;19.10;82.80;;;;;;5055664;28;20032;-76
2023/06/30 05:19:54;;;;;;;16.88;13.38;;;19.10;82.90;;;;;;5055589;28;20033;-77
2023/06/30 05:22:20;;;;;;;20.23;14.73;;;19.10;83.10;;;;;;5055459;28;20029;-76
2023/06/30 05:24:46;;;;;;;17.10;13.48;;;19.10;83.20;;;;;;5055329;28;20523;-79
2023/06/30 05:27:11;;;;;;;20.30;14.85;;;19.00;82.00;;;;;;5055262;28;20054;-75
2023/06/30 05:29:37;;;;;;;20.33;15.15;;;18.90;81.70;;;;;;5055135;28;20024;-78
2023/06/30 05:32:03;;;;;;;20.27;15.35;;;18.70;82.30;;;;;;5055383;28;20017;-76
2023/06/30 05:34:29;;;;;;;18.48;14.63;;;18.60;82.70;;;;;;5054337;28;20037;-78
2023/06/30 05:36:55;;;;;;;17.65;14.32;;;18.50;82.20;;;;;;5055649;28;20123;-79
2023/06/30 05:39:22;;;;;;;18.95;15.27;;;18.60;83.10;;;;;;5056088;28;20049;-79
2023/06/30 05:41:47;;;;;;;19.90;14.68;;;18.60;82.20;;;;;;5054884;28;20025;-78
2023/06/30 05:44:13;;;;;;;20.02;14.10;;;18.60;82.40;;;;;;5054646;28;20051;-78
2023/06/30 05:46:39;;;;;;;20.08;15.48;;;18.50;83.20;;;;;;5054192;28;20025;-78
2023/06/30 05:49:05;;;;;;;19.65;14.77;;;18.40;83.70;;;;;;5055039;28;20021;-77
2023/06/30 05:51:34;;;;;;;17.30;13.82;;;18.40;84.50;;;;;;5056757;28;20021;-77
2023/06/30 05:54:01;;;;;;;16.98;13.85;;;18.30;83.90;;;;;;5057519;28;20028;-77
2023/06/30 05:56:27;;;;;;;20.35;14.10;;;18.40;84.00;;;;;;5055712;28;20108;-76
2023/06/30 05:58:53;;;;;;;16.17;12.95;;;18.40;84.20;;;;;;5056216;28;20021;-77
2023/06/30 06:01:20;;;;;;;16.55;13.57;;;18.50;84.30;;;;;;5055657;28;20021;-77
2023/06/30 06:03:46;;;;;;;19.55;15.05;;;18.60;84.30;;;;;;5054924;28;20029;-76
2023/06/30 06:06:11;;;;;;;18.67;13.75;;;18.70;84.20;;;;;;5055527;28;20115;-76
2023/06/30 06:08:42;;;;;;;20.20;14.27;;;18.70;83.90;;;;;;5056206;28;20032;-75
2023/06/30 06:11:08;;;;;;;18.25;14.45;;;18.80;83.70;;;;;;5055276;28;20055;-77
2023/06/30 06:13:35;;;;;;;19.05;14.05;;;18.80;83.60;;;;;;5055537;28;20029;-74
2023/06/30 06:16:01;;;;;;;22.70;14.60;;;18.90;83.50;;;;;;5054878;28;20075;-74
2023/06/30 06:18:27;;;;;;;18.05;14.38;;;18.90;82.80;;;;;;5053710;28;20116;-73
2023/06/30 06:20:53;;;;;;;21.02;15.27;;;18.90;81.90;;;;;;5054929;28;20052;-75
2023/06/30 06:23:20;;;;;;;21.13;15.85;;;18.90;81.20;;;;;;5055022;28;20036;-75
2023/06/30 06:25:46;;;;;;;19.30;14.15;;;18.90;81.50;;;;;;5054468;28;20029;-77
2023/06/30 06:28:11;;;;;;;23.08;15.02;;;18.90;81.20;;;;;;5054516;28;20421;-75
2023/06/30 06:30:37;;;;;;;20.33;14.85;;;18.80;81.50;;;;;;5053031;28;20095;-76
2023/06/30 06:33:02;;;;;;;21.95;14.45;;;18.90;81.50;;;;;;5054257;28;20025;-74
2023/06/30 06:35:28;;;;;;;19.55;14.27;;;18.80;81.00;;;;;;5054278;28;20029;-79
2023/06/30 06:37:53;;;;;;;18.33;13.85;;;18.80;81.50;;;;;;5054219;28;20021;-77
2023/06/30 06:40:19;;;;;;;17.95;14.00;;;18.90;81.80;;;;;;5054251;28;20489;-73
2023/06/30 06:42:45;;;;;;;19.85;14.85;;;18.90;82.00;;;;;;5053864;28;20075;-76
2023/06/30 06:45:12;;;;;;;18.52;15.18;;;19.10;81.60;;;;;;5054374;28;20025;-75
2023/06/30 06:48:15;;;;;;;20.83;15.63;;;19.10;81.50;;;;;;5054191;28;20021;-75
2023/06/30 06:50:40;;;;;;;23.13;14.50;;;19.20;81.20;;;;;;5052694;28;20393;-74
2023/06/30 06:53:06;;;;;;;21.65;15.55;;;19.30;81.30;;;;;;5053775;28;20103;-74
2023/06/30 06:55:32;;;;;;;23.38;15.23;;;19.40;81.20;;;;;;5053928;28;20057;-74
2023/06/30 06:57:58;;;;;;;20.55;14.45;;;19.40;80.20;;;;;;5053256;28;20052;-74
2023/06/30 07:00:23;;;;;;;16.33;13.10;;;19.50;80.10;;;;;;5053681;28;20477;-74
2023/06/30 07:02:49;;;;;;;20.02;14.10;;;19.60;80.30;;;;;;5052151;28;20033;-73
2023/06/30 07:05:15;;;;;;;20.00;14.48;;;19.60;80.60;;;;;;5052180;28;20090;-74
2023/06/30 07:07:40;;;;;;;19.17;14.52;;;19.60;80.40;;;;;;5053408;28;20044;-74
2023/06/30 07:10:06;;;;;;;19.38;13.85;;;19.70;80.40;;;;;;5053621;28;20124;-75
2023/06/30 07:12:32;;;;;;;20.88;15.48;;;19.70;80.60;;;;;;5053149;28;20028;-80
2023/06/30 07:14:59;;;;;;;29.33;14.75;;;19.70;80.70;;;;;;5053403;28;20029;-81
2023/06/30 07:17:27;;;;;;;19.02;13.82;;;19.70;80.30;;;;;;5052960;28;20021;-83
2023/06/30 07:19:54;;;;;;;20.35;15.00;;;19.80;79.00;;;;;;5053422;28;20025;-83
2023/06/30 07:22:21;;;;;;;22.33;13.48;;;19.90;78.40;;;;;;5052051;28;20021;-82
2023/06/30 07:24:47;;;;;;;20.67;13.57;;;20.00;77.80;;;;;;5053063;28;20039;-86
2023/06/30 07:27:12;;;;;;;19.70;13.68;;;20.00;77.70;;;;;;5052871;28;20021;-80
2023/06/30 07:29:38;;;;;;;18.75;13.15;;;20.10;77.20;;;;;;5052419;28;20115;-82
2023/06/30 07:32:04;;;;;;;19.40;14.57;;;20.10;76.60;;;;;;5052335;28;20045;-80
2023/06/30 07:34:33;;;;;;;18.85;14.05;;;20.00;76.40;;;;;;5053747;28;20028;-85
2023/06/30 07:36:59;;;;;;;23.08;15.48;;;19.90;75.80;;;;;;5053232;28;20020;-79
2023/06/30 07:39:25;;;;;;;22.40;15.10;;;19.90;75.40;;;;;;5053096;28;20063;-82
2023/06/30 07:41:51;;;;;;;18.95;14.50;;;19.90;75.30;;;;;;5052941;28;20049;-79
2023/06/30 07:44:19;;;;;;;20.45;15.30;;;19.90;75.10;;;;;;5051828;28;20037;-81
2023/06/30 07:46:45;;;;;;;19.92;14.32;;;19.90;74.90;;;;;;5052038;28;20087;-81
2023/06/30 07:49:10;;;;;;;20.10;14.55;;;19.90;75.60;;;;;;5053657;28;20470;-81
2023/06/30 07:51:36;;;;;;;18.83;14.02;;;20.00;75.20;;;;;;5052134;28;20036;-79
2023/06/30 07:54:02;;;;;;;18.27;14.63;;;20.10;75.10;;;;;;5053143;28;20021;-79
2023/06/30 07:56:27;;;;;;;18.40;13.57;;;20.30;74.80;;;;;;5052874;28;20025;-79
2023/06/30 07:58:53;;;;;;;21.25;14.18;;;20.50;74.60;;;;;;5051608;28;20021;-79
2023/06/30 08:01:18;;;;;;;19.13;13.82;;;20.70;74.20;;;;;;5052811;28;20411;-79
2023/06/30 08:03:44;;;;;;;19.60;14.38;;;20.80;74.40;;;;;;5051634;28;20489;-79
2023/06/30 08:06:09;;;;;;;19.75;13.88;;;21.00;73.80;;;;;;5052733;28;20460;-80
2023/06/30 08:08:35;;;;;;;19.17;14.10;;;21.20;73.40;;;;;;5052795;28;20029;-80
2023/06/30 08:11:01;;;;;;;22.70;16.02;;;21.20;73.80;;;;;;5052776;28;20100;-80
2023/06/30 08:13:26;;;;;;;21.20;15.85;;;21.20;72.20;;;;;;5053145;28;20056;-79
2023/06/30 08:15:52;;;;;;;23.25;15.95;;;20.90;73.90;;;;;;5052611;28;20500;-80
2023/06/30 08:18:17;;;;;;;20.40;15.50;;;20.70;74.50;;;;;;5052793;28;20021;-79
2023/06/30 08:20:43;;;;;;;19.30;14.77;;;20.80;73.50;;;;;;5051557;28;20017;-80
2023/06/30 08:23:12;;;;;;;20.73;14.20;;;20.70;73.10;;;;;;5052605;28;20033;-80
2023/06/30 08:25:37;;;;;;;19.17;15.50;;;20.60;73.50;;;;;;5052522;28;20025;-79
2023/06/30 08:28:03;;;;;;;19.42;14.60;;;20.40;75.60;;;;;;5054714;28;20103;-79
2023/06/30 08:30:28;;;;;;;18.55;15.00;;;20.20;75.10;;;;;;5057289;28;20025;-79
2023/06/30 08:32:54;;;;;;;17.75;14.27;;;20.10;77.50;;;;;;5059620;28;20021;-79
2023/06/30 08:35:19;;;;;;;18.77;14.73;;;19.80;77.90;;;;;;5056371;28;20112;-79
2023/06/30 08:37:45;;;;;;;15.25;12.02;;;19.90;78.10;;;;;;5055147;28;20017;-79
2023/06/30 08:40:12;;;;;;;16.35;12.57;;;19.80;78.60;;;;;;5056624;28;20032;-79
2023/06/30 08:42:43;;;;;;;12.98;11.20;;;19.90;79.40;;;;;;5056052;28;20028;-80
2023/06/30 08:45:09;;;;;;;12.52;9.63;;;19.90;78.90;;;;;;5055931;28;20481;-78
2023/06/30 08:47:37;;;;;;;12.52;10.55;;;19.90;78.80;;;;;;5056393;28;20025;-79
2023/06/30 08:50:04;;;;;;;10.55;9.20;;;19.90;79.20;;;;;;5055124;28;20035;-79
2023/06/30 08:52:29;;;;;;;11.55;8.88;;;20.00;77.90;;;;;;5056122;28;20499;-79
2023/06/30 08:54:55;;;;;;;10.93;8.85;;;20.10;77.50;;;;;;5056171;28;20033;-79
2023/06/30 08:57:21;;;;;;;12.40;10.32;;;20.20;77.40;;;;;;5056050;28;20064;-79
2023/06/30 08:59:47;;;;;;;14.00;10.82;;;20.40;76.90;;;;;;5055894;28;20028;-79
2023/06/30 09:02:13;;;;;;;12.82;9.75;;;20.40;75.80;;;;;;5056075;28;20432;-79
2023/06/30 09:04:40;;;;;;;10.63;9.27;;;20.30;75.20;;;;;;5056088;28;20090;-78
2023/06/30 09:07:22;;;;;;;11.73;9.30;;;20.40;75.20;;;;;;5056355;28;20043;-78
2023/06/30 09:09:49;;;;;;;12.00;9.18;;;20.50;75.30;;;;;;5055962;28;20024;-78
2023/06/30 09:12:17;;;;;;;12.23;9.05;;;20.60;74.90;;;;;;5056186;28;20454;-79
2023/06/30 09:14:45;;;;;;;10.35;8.65;;;20.60;75.00;;;;;;5055689;28;20378;-81
2023/06/30 09:17:11;;;;;;;11.48;8.75;;;20.60;75.20;;;;;;5055880;28;20017;-78
2023/06/30 09:19:38;;;;;;;9.68;8.38;;;20.70;75.20;;;;;;5055835;28;20033;-78
2023/06/30 09:22:05;;;;;;;10.65;8.77;;;20.70;74.50;;;;;;5055919;28;20100;-79
2023/06/30 09:24:30;;;;;;;11.18;7.75;;;20.80;74.10;;;;;;5055218;28;20029;-79
2023/06/30 09:26:56;;;;;;;9.77;8.18;;;20.70;73.70;;;;;;5044925;28;20430;-80
2023/06/30 09:29:23;;;;;;;10.52;8.35;;;20.80;73.80;;;;;;5046072;28;20025;-80
2023/06/30 09:31:52;;;;;;;10.13;8.63;;;20.80;73.50;;;;;;5043787;28;20462;-79
2023/06/30 09:34:21;;;;;;;9.27;7.63;;;20.70;75.10;;;;;;5045052;28;20024;-79
2023/06/30 09:36:51;;;;;;;10.95;8.57;;;20.70;74.40;;;;;;5043751;28;20017;-78
2023/06/30 09:39:17;;;;;;;11.13;8.48;;;20.80;73.60;;;;;;5046726;28;20390;-79
2023/06/30 09:41:44;;;;;;;10.15;7.28;;;20.80;73.90;;;;;;5043929;28;20013;-80
2023/06/30 09:44:11;;;;;;;10.68;8.63;;;20.80;73.80;;;;;;5045755;28;20025;-80
2023/06/30 09:46:43;;;;;;;10.77;8.18;;;20.80;73.20;;;;;;5043620;28;20145;-79
2023/06/30 09:49:09;;;;;;;10.35;7.55;;;20.90;72.40;;;;;;5044165;28;20021;-79
2023/06/30 09:51:34;;;;;;;9.25;7.80;;;21.00;72.20;;;;;;5045166;28;20021;-79
2023/06/30 09:54:01;;;;;;;9.63;7.05;;;21.10;71.60;;;;;;5044058;28;20013;-79
2023/06/30 09:56:26;;;;;;;9.13;8.02;;;21.20;71.10;;;;;;5043616;28;20096;-79
2023/06/30 09:58:59;;;;;;;8.52;7.63;;;21.30;70.80;;;;;;5043886;28;20013;-79
2023/06/30 10:01:24;;;;;;;7.82;6.80;;;21.40;69.90;;;;;;5045481;28;20131;-80
2023/06/30 10:03:52;;;;;;;10.82;7.60;;;21.50;69.70;;;;;;5043724;28;20390;-80
2023/06/30 10:06:21;;;;;;;7.45;5.95;;;21.40;70.20;;;;;;5042818;28;20037;-80
2023/06/30 10:08:51;;;;;;;7.18;6.15;;;21.60;69.50;;;;;;5045233;28;20043;-80
2023/06/30 10:11:21;;;;;;;8.85;6.07;;;21.70;69.30;;;;;;5043667;28;20029;-79
2023/06/30 10:13:48;;;;;;;8.52;6.80;;;21.70;69.10;;;;;;5042872;28;20020;-80
2023/06/30 10:16:16;;;;;;;7.20;6.18;;;21.50;69.10;;;;;;5044522;28;20036;-78
2023/06/30 10:18:45;;;;;;;8.32;6.63;;;21.40;68.60;;;;;;5045215;28;20079;-79
2023/06/30 10:21:11;;;;;;;8.00;6.10;;;21.20;69.80;;;;;;5043529;28;20389;-78
2023/06/30 10:23:39;;;;;;;8.00;6.72;;;21.10;70.60;;;;;;5044180;28;20034;-79
2023/06/30 10:26:06;;;;;;;7.25;6.05;;;21.10;70.50;;;;;;5042826;28;20463;-80
2023/06/30 10:28:34;;;;;;;7.65;6.03;;;21.30;70.30;;;;;;5044373;28;20025;-78
2023/06/30 10:31:01;;;;;;;8.98;7.18;;;21.70;69.80;;;;;;5044705;28;20017;-79
2023/06/30 10:33:27;;;;;;;10.82;8.38;;;22.00;69.00;;;;;;5043158;28;20027;-79
2023/06/30 10:35:53;;;;;;;10.18;8.38;;;21.70;70.10;;;;;;5033805;28;20025;-79
2023/06/30 10:38:19;;;;;;;10.57;8.40;;;21.50;70.80;;;;;;5034129;28;20026;-79
2023/06/30 10:40:46;;;;;;;10.30;8.07;;;21.60;70.80;;;;;;5034071;28;20017;-79
2023/06/30 10:43:13;;;;;;;10.45;9.00;;;21.60;71.60;;;;;;5033737;28;20029;-79
2023/06/30 10:46:14;;;;;;;11.30;8.88;;;21.50;71.10;;;;;;5033906;28;20021;-79
2023/06/30 10:48:40;;;;;;;11.90;8.60;;;21.60;70.00;;;;;;5012337;28;20109;-79
2023/06/30 10:51:06;;;;;;;12.02;9.25;;;21.60;70.10;;;;;;5028799;28;20056;-80
2023/06/30 10:53:31;;;;;;;12.23;10.18;;;21.80;70.50;;;;;;5034127;28;20018;-79
2023/06/30 10:55:57;;;;;;;14.52;11.65;;;21.40;69.50;;;;;;5033892;28;20026;-80
2023/06/30 10:58:24;;;;;;;13.15;10.45;;;21.20;70.70;;;;;;5032619;28;20482;-81
2023/06/30 11:01:06;;;;;;;12.52;11.23;;;21.00;71.40;;;;;;5033933;28;20034;-81
2023/06/30 11:03:56;;;;;;;15.13;12.88;;;20.90;71.60;;;;;;5034163;28;20087;-80
2023/06/30 11:06:22;;;;;;;16.27;13.68;;;20.80;72.40;;;;;;5033688;28;20068;-79
2023/06/30 11:09:11;;;;;;;17.55;14.32;;;20.80;72.50;;;;;;5039497;23;20077;-80
2023/06/30 11:12:06;;;;;;;19.13;14.63;;;20.60;74.00;;;;;;5032631;28;20032;-80
2023/06/30 11:14:32;;;;;;;18.15;15.20;;;20.60;74.70;;;;;;5031462;28;20025;-79
2023/06/30 11:17:06;;;;;;;17.23;14.45;;;20.60;74.40;;;;;;5023840;28;20018;-80
2023/06/30 11:19:32;;;;;;;21.85;16.83;;;20.60;74.50;;;;;;5023187;28;20121;-80
2023/06/30 11:22:23;;;;;;;20.02;16.55;;;20.40;75.60;;;;;;5024529;28;20025;-81
2023/06/30 11:24:48;;;;;;;20.33;16.73;;;20.20;76.60;;;;;;5023464;28;20421;-80
2023/06/30 11:27:14;;;;;;;20.52;17.02;;;20.20;75.40;;;;;;5024212;28;20014;-77
2023/06/30 11:29:40;;;;;;;18.27;15.90;;;20.10;76.50;;;;;;5026425;28;20371;-80
2023/06/30 11:32:07;;;;;;;20.73;16.98;;;20.10;77.40;;;;;;5023801;28;20024;-80
2023/06/30 11:34:32;;;;;;;22.88;18.85;;;20.20;76.10;;;;;;5015054;28;20090;-80
2023/06/30 11:37:07;;;;;;;23.27;17.80;;;20.10;75.20;;;;;;5013853;28;20030;-78
2023/06/30 11:39:35;;;;;;;22.73;18.48;;;20.20;75.20;;;;;;5013639;28;20121;-79
2023/06/30 11:42:00;;;;;;;24.13;18.75;;;20.20;76.60;;;;;;5013716;28;20038;-80
2023/06/30 11:44:26;;;;;;;21.98;17.17;;;20.20;76.60;;;;;;5013542;28;20599;-81
2023/06/30 11:46:52;;;;;;;27.67;19.45;;;20.30;75.60;;;;;;5013635;28;20049;-79
2023/06/30 11:49:18;;;;;;;23.25;19.85;;;20.50;73.60;;;;;;5013863;28;20053;-79
2023/06/30 11:51:47;;;;;;;25.58;20.95;;;20.60;72.50;;;;;;5013556;28;20467;-80
2023/06/30 11:54:14;;;;;;;28.17;21.45;;;20.50;73.20;;;;;;5012197;28;20018;-81
2023/06/30 11:56:39;;;;;;;26.83;20.10;;;20.50;73.60;;;;;;5030415;23;20057;-80
2023/06/30 11:59:10;;;;;;;26.95;21.08;;;20.60;72.90;;;;;;5033803;28;20033;-77
2023/06/30 12:01:36;;;;;;;25.42;20.52;;;20.80;73.60;;;;;;5014369;28;20475;-79
2023/06/30 12:04:08;;;;;;;28.27;20.15;;;20.80;73.20;;;;;;5032842;28;20048;-79
2023/06/30 12:06:35;;;;;;;25.02;20.30;;;21.00;72.60;;;;;;5015236;28;20064;-81
2023/06/30 12:09:02;;;;;;;25.73;18.95;;;21.00;71.30;;;;;;5015444;28;20029;-79
2023/06/30 12:11:31;;;;;;;26.92;20.17;;;21.10;71.30;;;;;;5015296;28;20112;-79
2023/06/30 12:13:57;;;;;;;29.98;22.83;;;21.40;70.70;;;;;;5015123;28;20459;-79
2023/06/30 12:16:26;;;;;;;29.17;23.42;;;21.30;69.20;;;;;;5032850;28;20088;-79
2023/06/30 12:18:53;;;;;;;28.70;22.27;;;21.40;68.90;;;;;;5032997;28;20022;-79
2023/06/30 12:21:19;;;;;;;30.48;23.80;;;21.60;68.20;;;;;;5033204;28;20083;-79
2023/06/30 12:23:45;;;;;;;26.92;22.77;;;21.60;67.50;;;;;;5015127;28;20120;-78
2023/06/30 12:26:15;;;;;;;26.40;21.85;;;21.70;67.60;;;;;;5031499;28;20435;-81
2023/06/30 12:28:43;;;;;;;30.98;23.73;;;21.80;67.40;;;;;;5032823;28;20018;-80
2023/06/30 12:31:09;;;;;;;31.50;23.90;;;21.70;68.10;;;;;;5032922;28;20029;-80